sensor_id;sensor_type;location;lat;lon;timestamp;noise_LAeq;noise_LA_min;noise_LA_max;noise_LA01;noise_LA95
41518;Laerm;27249;48.094;-1.690;2023-02-04T00:01:13;53.92;41.61;66.87;;
41518;Laerm;27249;48.094;-1.690;2023-02-04T00:03:39;54.52;40.98;69.89;;
41518;Laerm;27249;48.094;-1.690;2023-02-04T00:06:04;50.14;41.22;59.85;;
41518;Laerm;27249;48.094;-1.690;2023-02-04T00:08:29;52.29;42.90;65.38;;
41518;Laerm;27249;48.094;-1.690;2023-02-04T00:10:55;51.75;42.03;64.97;;
41518;Laerm;27249;48.094;-1.690;2023-02-04T00:13:20;51.60;42.09;62.70;;
41518;Laerm;27249;48.094;-1.690;2023-02-04T00:15:45;48.97;41.53;63.11;;
41518;Laerm;27249;48.094;-1.690;2023-02-04T00:18:10;53.00;42.59;65.12;;
41518;Laerm;27249;48.094;-1.690;2023-02-04T00:20:36;52.01;42.35;61.53;;
41518;Laerm;27249;48.094;-1.690;2023-02-04T00:23:01;52.31;41.61;64.17;;
41518;Laerm;27249;48.094;-1.690;2023-02-04T00:25:26;49.51;41.53;61.54;;
41518;Laerm;27249;48.094;-1.690;2023-02-04T00:27:51;50.96;41.82;62.20;;
41518;Laerm;27249;48.094;-1.690;2023-02-04T00:30:16;50.00;42.88;61.43;;
41518;Laerm;27249;48.094;-1.690;2023-02-04T00:32:42;48.00;41.53;61.29;;
41518;Laerm;27249;48.094;-1.690;2023-02-04T00:35:07;44.57;41.46;51.82;;
41518;Laerm;27249;48.094;-1.690;2023-02-04T00:37:33;49.62;41.22;58.52;;
41518;Laerm;27249;48.094;-1.690;2023-02-04T00:39:59;51.31;41.46;66.41;;
41518;Laerm;27249;48.094;-1.690;2023-02-04T00:42:25;49.16;42.29;74.82;;
41518;Laerm;27249;48.094;-1.690;2023-02-04T00:44:50;52.47;44.54;60.41;;
41518;Laerm;27249;48.094;-1.690;2023-02-04T00:47:15;51.43;41.53;62.27;;
41518;Laerm;27249;48.094;-1.690;2023-02-04T00:49:41;46.37;41.30;58.97;;
41518;Laerm;27249;48.094;-1.690;2023-02-04T00:52:06;43.92;40.98;50.56;;
41518;Laerm;27249;48.094;-1.690;2023-02-04T00:54:31;44.66;40.98;55.18;;
41518;Laerm;27249;48.094;-1.690;2023-02-04T00:56:56;45.97;40.71;57.01;;
41518;Laerm;27249;48.094;-1.690;2023-02-04T00:59:22;48.65;41.22;59.30;;
41518;Laerm;27249;48.094;-1.690;2023-02-04T01:01:47;50.61;41.61;63.45;;
41518;Laerm;27249;48.094;-1.690;2023-02-04T01:04:12;44.31;41.30;52.63;;
41518;Laerm;27249;48.094;-1.690;2023-02-04T01:06:38;50.49;41.38;63.13;;
41518;Laerm;27249;48.094;-1.690;2023-02-04T01:09:04;48.59;40.80;60.37;;
41518;Laerm;27249;48.094;-1.690;2023-02-04T01:11:30;48.45;40.98;66.96;;
41518;Laerm;27249;48.094;-1.690;2023-02-04T01:13:55;49.26;41.22;64.03;;
41518;Laerm;27249;48.094;-1.690;2023-02-04T01:16:20;50.77;41.46;62.19;;
41518;Laerm;27249;48.094;-1.690;2023-02-04T01:18:46;51.09;41.75;62.65;;
41518;Laerm;27249;48.094;-1.690;2023-02-04T01:21:11;46.63;40.62;60.71;;
41518;Laerm;27249;48.094;-1.690;2023-02-04T01:23:36;51.42;40.89;65.50;;
41518;Laerm;27249;48.094;-1.690;2023-02-04T01:26:02;50.43;41.46;62.94;;
41518;Laerm;27249;48.094;-1.690;2023-02-04T01:28:27;46.52;40.98;60.73;;
41518;Laerm;27249;48.094;-1.690;2023-02-04T01:30:52;49.63;41.30;62.41;;
41518;Laerm;27249;48.094;-1.690;2023-02-04T01:33:18;47.27;41.14;58.00;;
41518;Laerm;27249;48.094;-1.690;2023-02-04T01:35:43;50.69;41.68;63.00;;
41518;Laerm;27249;48.094;-1.690;2023-02-04T01:38:08;48.13;40.53;59.09;;
41518;Laerm;27249;48.094;-1.690;2023-02-04T01:40:33;49.10;40.80;61.41;;
41518;Laerm;27249;48.094;-1.690;2023-02-04T01:42:58;47.14;41.46;58.41;;
41518;Laerm;27249;48.094;-1.690;2023-02-04T01:45:24;44.77;40.71;54.60;;
41518;Laerm;27249;48.094;-1.690;2023-02-04T01:47:49;48.49;41.46;61.92;;
41518;Laerm;27249;48.094;-1.690;2023-02-04T01:50:15;49.81;40.63;59.98;;
41518;Laerm;27249;48.094;-1.690;2023-02-04T01:52:41;47.51;41.61;59.67;;
41518;Laerm;27249;48.094;-1.690;2023-02-04T01:55:26;48.41;41.22;61.87;;
41518;Laerm;27249;48.094;-1.690;2023-02-04T01:57:52;50.70;41.96;61.53;;
41518;Laerm;27249;48.094;-1.690;2023-02-04T02:00:21;51.07;41.48;61.75;;
41518;Laerm;27249;48.094;-1.690;2023-02-04T02:02:48;47.61;41.46;59.55;;
41518;Laerm;27249;48.094;-1.690;2023-02-04T02:05:56;47.53;41.14;61.52;;
41518;Laerm;27249;48.094;-1.690;2023-02-04T02:08:03;49.19;41.14;63.90;;
41518;Laerm;27249;48.094;-1.690;2023-02-04T02:10:29;43.43;40.98;46.65;;
41518;Laerm;27249;48.094;-1.690;2023-02-04T02:12:55;46.20;41.68;57.28;;
41518;Laerm;27249;48.094;-1.690;2023-02-04T02:15:20;51.70;41.06;63.89;;
41518;Laerm;27249;48.094;-1.690;2023-02-04T02:17:46;49.39;41.06;59.46;;
41518;Laerm;27249;48.094;-1.690;2023-02-04T02:20:14;47.81;41.38;60.59;;
41518;Laerm;27249;48.094;-1.690;2023-02-04T02:22:48;51.00;41.06;60.91;;
41518;Laerm;27249;48.094;-1.690;2023-02-04T02:25:16;49.76;41.22;60.29;;
41518;Laerm;27249;48.094;-1.690;2023-02-04T02:27:42;46.71;40.33;57.65;;
41518;Laerm;27249;48.094;-1.690;2023-02-04T02:30:08;47.14;41.14;57.73;;
41518;Laerm;27249;48.094;-1.690;2023-02-04T02:32:34;48.28;40.89;59.47;;
41518;Laerm;27249;48.094;-1.690;2023-02-04T02:34:59;49.99;40.53;64.06;;
41518;Laerm;27249;48.094;-1.690;2023-02-04T02:37:24;45.74;40.62;57.30;;
41518;Laerm;27249;48.094;-1.690;2023-02-04T02:39:50;48.96;41.30;59.45;;
41518;Laerm;27249;48.094;-1.690;2023-02-04T02:42:15;48.00;41.38;60.95;;
41518;Laerm;27249;48.094;-1.690;2023-02-04T02:44:42;43.95;41.22;54.29;;
41518;Laerm;27249;48.094;-1.690;2023-02-04T02:47:11;50.15;40.43;61.78;;
41518;Laerm;27249;48.094;-1.690;2023-02-04T02:49:37;51.19;41.22;65.28;;
41518;Laerm;27249;48.094;-1.690;2023-02-04T02:52:04;49.30;41.14;60.14;;
41518;Laerm;27249;48.094;-1.690;2023-02-04T02:54:30;49.75;41.38;62.16;;
41518;Laerm;27249;48.094;-1.690;2023-02-04T02:56:56;50.86;41.22;61.38;;
41518;Laerm;27249;48.094;-1.690;2023-02-04T02:59:22;50.93;40.71;62.51;;
41518;Laerm;27249;48.094;-1.690;2023-02-04T03:01:48;49.61;41.96;65.96;;
41518;Laerm;27249;48.094;-1.690;2023-02-04T03:04:15;48.68;40.71;63.45;;
41518;Laerm;27249;48.094;-1.690;2023-02-04T03:06:41;46.70;41.30;57.01;;
41518;Laerm;27249;48.094;-1.690;2023-02-04T03:09:06;50.24;41.61;62.88;;
41518;Laerm;27249;48.094;-1.690;2023-02-04T03:11:32;50.16;40.96;62.91;;
41518;Laerm;27249;48.094;-1.690;2023-02-04T03:13:58;47.36;40.71;62.31;;
41518;Laerm;27249;48.094;-1.690;2023-02-04T03:16:25;51.23;40.71;60.82;;
41518;Laerm;27249;48.094;-1.690;2023-02-04T03:18:50;50.28;41.89;60.17;;
41518;Laerm;27249;48.094;-1.690;2023-02-04T03:21:15;49.91;40.98;63.97;;
41518;Laerm;27249;48.094;-1.690;2023-02-04T03:23:41;49.22;41.38;62.09;;
41518;Laerm;27249;48.094;-1.690;2023-02-04T03:26:06;50.44;40.33;66.21;;
41518;Laerm;27249;48.094;-1.690;2023-02-04T03:28:31;45.30;40.71;56.68;;
41518;Laerm;27249;48.094;-1.690;2023-02-04T03:30:57;47.06;41.68;58.87;;
41518;Laerm;27249;48.094;-1.690;2023-02-04T03:33:23;48.14;40.98;60.23;;
41518;Laerm;27249;48.094;-1.690;2023-02-04T03:35:48;49.32;40.98;64.47;;
41518;Laerm;27249;48.094;-1.690;2023-02-04T03:38:15;47.43;41.46;58.63;;
41518;Laerm;27249;48.094;-1.690;2023-02-04T03:40:40;50.04;41.14;62.27;;
41518;Laerm;27249;48.094;-1.690;2023-02-04T03:43:06;52.80;41.89;62.36;;
41518;Laerm;27249;48.094;-1.690;2023-02-04T03:45:31;51.41;41.38;61.12;;
41518;Laerm;27249;48.094;-1.690;2023-02-04T03:47:56;47.25;42.29;59.44;;
41518;Laerm;27249;48.094;-1.690;2023-02-04T03:50:21;47.89;41.61;61.41;;
41518;Laerm;27249;48.094;-1.690;2023-02-04T03:52:46;44.52;40.53;55.43;;
41518;Laerm;27249;48.094;-1.690;2023-02-04T03:55:14;46.49;40.98;58.48;;
41518;Laerm;27249;48.094;-1.690;2023-02-04T03:57:39;49.28;42.29;59.84;;
41518;Laerm;27249;48.094;-1.690;2023-02-04T04:00:05;50.16;41.75;62.37;;
41518;Laerm;27249;48.094;-1.690;2023-02-04T04:02:30;46.54;40.89;60.53;;
41518;Laerm;27249;48.094;-1.690;2023-02-04T04:04:55;48.90;41.06;61.09;;
41518;Laerm;27249;48.094;-1.690;2023-02-04T04:07:21;45.20;41.11;59.68;;
41518;Laerm;27249;48.094;-1.690;2023-02-04T04:09:46;48.89;41.22;63.55;;
41518;Laerm;27249;48.094;-1.690;2023-02-04T04:12:11;46.63;41.53;58.43;;
41518;Laerm;27249;48.094;-1.690;2023-02-04T04:14:36;52.71;42.64;63.53;;
41518;Laerm;27249;48.094;-1.690;2023-02-04T04:17:02;49.79;41.38;61.54;;
41518;Laerm;27249;48.094;-1.690;2023-02-04T04:19:27;46.77;41.75;56.54;;
41518;Laerm;27249;48.094;-1.690;2023-02-04T04:21:52;49.65;41.30;64.59;;
41518;Laerm;27249;48.094;-1.690;2023-02-04T04:24:17;49.12;41.68;59.29;;
41518;Laerm;27249;48.094;-1.690;2023-02-04T04:26:42;51.26;41.53;61.97;;
41518;Laerm;27249;48.094;-1.690;2023-02-04T04:29:08;50.60;41.14;61.84;;
41518;Laerm;27249;48.094;-1.690;2023-02-04T04:31:33;48.56;41.38;62.20;;
41518;Laerm;27249;48.094;-1.690;2023-02-04T04:33:58;49.32;40.33;61.46;;
41518;Laerm;27249;48.094;-1.690;2023-02-04T04:36:23;51.92;41.06;63.13;;
41518;Laerm;27249;48.094;-1.690;2023-02-04T04:38:49;52.21;41.14;73.71;;
41518;Laerm;27249;48.094;-1.690;2023-02-04T04:41:14;51.62;43.19;63.95;;
41518;Laerm;27249;48.094;-1.690;2023-02-04T04:43:39;49.00;42.29;61.05;;
41518;Laerm;27249;48.094;-1.690;2023-02-04T04:46:04;50.88;42.41;62.48;;
41518;Laerm;27249;48.094;-1.690;2023-02-04T04:48:30;49.28;41.30;59.92;;
41518;Laerm;27249;48.094;-1.690;2023-02-04T04:50:55;53.32;41.22;65.35;;
41518;Laerm;27249;48.094;-1.690;2023-02-04T04:53:20;50.63;40.33;61.96;;
41518;Laerm;27249;48.094;-1.690;2023-02-04T04:55:45;50.65;41.55;61.26;;
41518;Laerm;27249;48.094;-1.690;2023-02-04T04:58:11;48.41;41.06;62.29;;
41518;Laerm;27249;48.094;-1.690;2023-02-04T05:00:36;49.43;41.61;62.96;;
41518;Laerm;27249;48.094;-1.690;2023-02-04T05:03:01;53.57;43.81;65.33;;
41518;Laerm;27249;48.094;-1.690;2023-02-04T05:05:26;50.43;41.53;62.31;;
41518;Laerm;27249;48.094;-1.690;2023-02-04T05:07:52;50.26;40.80;61.29;;
41518;Laerm;27249;48.094;-1.690;2023-02-04T05:10:21;48.67;41.46;63.72;;
41518;Laerm;27249;48.094;-1.690;2023-02-04T05:12:46;49.56;42.59;64.60;;
41518;Laerm;27249;48.094;-1.690;2023-02-04T05:15:12;54.14;43.19;71.07;;
41518;Laerm;27249;48.094;-1.690;2023-02-04T05:17:37;45.68;41.30;57.76;;
41518;Laerm;27249;48.094;-1.690;2023-02-04T05:20:02;50.15;42.03;60.58;;
41518;Laerm;27249;48.094;-1.690;2023-02-04T05:22:28;52.47;42.98;61.65;;
41518;Laerm;27249;48.094;-1.690;2023-02-04T05:24:53;53.89;41.61;65.59;;
41518;Laerm;27249;48.094;-1.690;2023-02-04T05:27:18;49.06;41.38;59.08;;
41518;Laerm;27249;48.094;-1.690;2023-02-04T05:29:43;48.79;41.46;58.11;;
41518;Laerm;27249;48.094;-1.690;2023-02-04T05:32:09;52.65;42.53;62.49;;
41518;Laerm;27249;48.094;-1.690;2023-02-04T05:34:34;52.10;42.24;65.66;;
41518;Laerm;27249;48.094;-1.690;2023-02-04T05:36:59;49.08;42.82;59.98;;
41518;Laerm;27249;48.094;-1.690;2023-02-04T05:39:25;50.63;42.47;61.61;;
41518;Laerm;27249;48.094;-1.690;2023-02-04T05:41:50;48.69;41.96;59.71;;
41518;Laerm;27249;48.094;-1.690;2023-02-04T05:44:15;52.85;43.09;63.78;;
41518;Laerm;27249;48.094;-1.690;2023-02-04T05:46:40;51.48;42.90;61.90;;
41518;Laerm;27249;48.094;-1.690;2023-02-04T05:49:06;51.91;42.88;62.78;;
41518;Laerm;27249;48.094;-1.690;2023-02-04T05:51:32;51.14;42.41;63.77;;
41518;Laerm;27249;48.094;-1.690;2023-02-04T05:53:57;54.38;43.86;62.46;;
41518;Laerm;27249;48.094;-1.690;2023-02-04T05:56:22;52.39;43.09;62.84;;
41518;Laerm;27249;48.094;-1.690;2023-02-04T05:58:49;49.50;42.35;60.45;;
41518;Laerm;27249;48.094;-1.690;2023-02-04T06:01:14;53.60;43.63;64.82;;
41518;Laerm;27249;48.094;-1.690;2023-02-04T06:03:39;53.41;42.88;64.00;;
41518;Laerm;27249;48.094;-1.690;2023-02-04T06:06:04;50.49;41.61;60.13;;
41518;Laerm;27249;48.094;-1.690;2023-02-04T06:08:30;50.19;42.47;61.63;;
41518;Laerm;27249;48.094;-1.690;2023-02-04T06:10:55;54.08;42.76;65.42;;
41518;Laerm;27249;48.094;-1.690;2023-02-04T06:13:20;53.95;42.82;72.77;;
41518;Laerm;27249;48.094;-1.690;2023-02-04T06:15:45;53.87;44.27;61.49;;
41518;Laerm;27249;48.094;-1.690;2023-02-04T06:18:11;52.65;42.76;64.73;;
41518;Laerm;27249;48.094;-1.690;2023-02-04T06:20:36;51.30;43.39;62.65;;
41518;Laerm;27249;48.094;-1.690;2023-02-04T06:23:01;50.22;43.14;59.57;;
41518;Laerm;27249;48.094;-1.690;2023-02-04T06:25:27;52.85;43.44;61.35;;
41518;Laerm;27249;48.094;-1.690;2023-02-04T06:27:52;53.00;44.07;61.48;;
41518;Laerm;27249;48.094;-1.690;2023-02-04T06:30:17;53.03;42.65;62.66;;
41518;Laerm;27249;48.094;-1.690;2023-02-04T06:32:43;51.28;43.14;58.89;;
41518;Laerm;27249;48.094;-1.690;2023-02-04T06:35:08;49.63;42.53;61.44;;
41518;Laerm;27249;48.094;-1.690;2023-02-04T06:37:34;50.77;43.29;61.10;;
41518;Laerm;27249;48.094;-1.690;2023-02-04T06:39:59;52.14;44.62;65.20;;
41518;Laerm;27249;48.094;-1.690;2023-02-04T06:42:24;49.20;42.82;57.70;;
41518;Laerm;27249;48.094;-1.690;2023-02-04T06:44:50;56.08;43.34;68.17;;
41518;Laerm;27249;48.094;-1.690;2023-02-04T06:47:15;51.24;42.47;68.91;;
41518;Laerm;27249;48.094;-1.690;2023-02-04T06:49:41;54.11;44.31;65.41;;
41518;Laerm;27249;48.094;-1.690;2023-02-04T06:52:06;53.20;44.80;64.52;;
41518;Laerm;27249;48.094;-1.690;2023-02-04T06:54:31;54.75;45.36;70.11;;
41518;Laerm;27249;48.094;-1.690;2023-02-04T06:56:57;50.79;43.39;61.51;;
41518;Laerm;27249;48.094;-1.690;2023-02-04T06:59:30;52.71;43.24;63.97;;
41518;Laerm;27249;48.094;-1.690;2023-02-04T07:01:57;51.15;43.04;62.21;;
41518;Laerm;27249;48.094;-1.690;2023-02-04T07:04:22;54.19;43.28;67.70;;
41518;Laerm;27249;48.094;-1.690;2023-02-04T07:06:47;54.49;44.27;64.66;;
41518;Laerm;27249;48.094;-1.690;2023-02-04T07:09:12;51.08;43.44;64.81;;
41518;Laerm;27249;48.094;-1.690;2023-02-04T07:11:37;51.05;42.65;59.56;;
41518;Laerm;27249;48.094;-1.690;2023-02-04T07:14:03;54.77;45.66;61.56;;
41518;Laerm;27249;48.094;-1.690;2023-02-04T07:16:28;53.42;44.58;61.65;;
41518;Laerm;27249;48.094;-1.690;2023-02-04T07:18:53;53.93;44.83;63.65;;
41518;Laerm;27249;48.094;-1.690;2023-02-04T07:21:18;53.97;43.90;65.00;;
41518;Laerm;27249;48.094;-1.690;2023-02-04T07:23:44;56.52;46.91;68.67;;
41518;Laerm;27249;48.094;-1.690;2023-02-04T07:26:09;55.52;48.98;63.81;;
41518;Laerm;27249;48.094;-1.690;2023-02-04T07:28:34;55.22;45.99;62.82;;
41518;Laerm;27249;48.094;-1.690;2023-02-04T07:31:00;54.42;44.19;61.97;;
41518;Laerm;27249;48.094;-1.690;2023-02-04T07:33:26;54.63;46.64;67.60;;
41518;Laerm;27249;48.094;-1.690;2023-02-04T07:35:51;53.83;47.08;64.57;;
41518;Laerm;27249;48.094;-1.690;2023-02-04T07:38:16;54.27;44.69;63.32;;
41518;Laerm;27249;48.094;-1.690;2023-02-04T07:40:42;62.37;47.79;89.36;;
41518;Laerm;27249;48.094;-1.690;2023-02-04T07:43:07;55.99;44.07;64.07;;
41518;Laerm;27249;48.094;-1.690;2023-02-04T07:45:32;55.84;46.80;62.49;;
41518;Laerm;27249;48.094;-1.690;2023-02-04T07:47:57;56.41;49.82;63.60;;
41518;Laerm;27249;48.094;-1.690;2023-02-04T07:50:22;55.07;46.13;66.05;;
41518;Laerm;27249;48.094;-1.690;2023-02-04T07:52:48;54.70;46.95;65.48;;
41518;Laerm;27249;48.094;-1.690;2023-02-04T07:55:13;55.54;46.82;63.12;;
41518;Laerm;27249;48.094;-1.690;2023-02-04T07:57:39;55.66;45.48;63.03;;
41518;Laerm;27249;48.094;-1.690;2023-02-04T08:00:04;54.85;45.42;73.08;;
41518;Laerm;27249;48.094;-1.690;2023-02-04T08:02:30;55.85;47.59;67.07;;
41518;Laerm;27249;48.094;-1.690;2023-02-04T08:04:55;56.54;50.11;64.71;;
41518;Laerm;27249;48.094;-1.690;2023-02-04T08:07:21;55.15;46.18;64.20;;
41518;Laerm;27249;48.094;-1.690;2023-02-04T08:09:46;56.07;47.55;66.89;;
41518;Laerm;27249;48.094;-1.690;2023-02-04T08:12:11;56.62;47.36;63.79;;
41518;Laerm;27249;48.094;-1.690;2023-02-04T08:14:36;56.90;49.30;71.68;;
41518;Laerm;27249;48.094;-1.690;2023-02-04T08:17:02;56.10;47.61;63.99;;
41518;Laerm;27249;48.094;-1.690;2023-02-04T08:19:27;56.71;48.46;66.15;;
41518;Laerm;27249;48.094;-1.690;2023-02-04T08:21:52;57.78;47.76;66.78;;
41518;Laerm;27249;48.094;-1.690;2023-02-04T08:24:18;56.59;48.69;62.71;;
41518;Laerm;27249;48.094;-1.690;2023-02-04T08:26:43;56.94;49.75;63.60;;
41518;Laerm;27249;48.094;-1.690;2023-02-04T08:29:08;56.87;51.53;66.12;;
41518;Laerm;27249;48.094;-1.690;2023-02-04T08:31:34;56.32;49.33;69.89;;
41518;Laerm;27249;48.094;-1.690;2023-02-04T08:34:01;57.40;48.26;69.69;;
41518;Laerm;27249;48.094;-1.690;2023-02-04T08:36:26;55.04;47.86;62.51;;
41518;Laerm;27249;48.094;-1.690;2023-02-04T08:38:52;56.10;48.42;63.84;;
41518;Laerm;27249;48.094;-1.690;2023-02-04T08:41:17;54.85;48.45;66.32;;
41518;Laerm;27249;48.094;-1.690;2023-02-04T08:43:42;55.89;49.25;67.15;;
41518;Laerm;27249;48.094;-1.690;2023-02-04T08:46:07;56.46;47.68;64.88;;
41518;Laerm;27249;48.094;-1.690;2023-02-04T08:48:33;55.84;48.67;62.59;;
41518;Laerm;27249;48.094;-1.690;2023-02-04T08:50:58;58.10;53.71;64.37;;
41518;Laerm;27249;48.094;-1.690;2023-02-04T08:53:23;56.10;48.78;61.71;;
41518;Laerm;27249;48.094;-1.690;2023-02-04T08:55:48;57.63;50.80;64.83;;
41518;Laerm;27249;48.094;-1.690;2023-02-04T08:58:14;57.87;50.80;68.76;;
41518;Laerm;27249;48.094;-1.690;2023-02-04T09:00:39;56.68;49.11;62.67;;
41518;Laerm;27249;48.094;-1.690;2023-02-04T09:03:04;57.35;48.74;65.61;;
41518;Laerm;27249;48.094;-1.690;2023-02-04T09:05:30;57.04;49.06;63.19;;
41518;Laerm;27249;48.094;-1.690;2023-02-04T09:07:55;56.41;49.02;64.57;;
41518;Laerm;27249;48.094;-1.690;2023-02-04T09:10:20;56.93;48.66;74.77;;
41518;Laerm;27249;48.094;-1.690;2023-02-04T09:12:47;56.34;47.50;64.55;;
41518;Laerm;27249;48.094;-1.690;2023-02-04T09:15:12;58.27;52.11;64.50;;
41518;Laerm;27249;48.094;-1.690;2023-02-04T09:17:37;55.85;49.11;64.21;;
41518;Laerm;27249;48.094;-1.690;2023-02-04T09:20:03;57.83;53.08;63.67;;
41518;Laerm;27249;48.094;-1.690;2023-02-04T09:22:28;57.85;49.51;63.87;;
41518;Laerm;27249;48.094;-1.690;2023-02-04T09:24:54;57.01;49.67;63.67;;
41518;Laerm;27249;48.094;-1.690;2023-02-04T09:27:20;58.14;50.18;62.83;;
41518;Laerm;27249;48.094;-1.690;2023-02-04T09:29:45;55.63;50.19;65.56;;
41518;Laerm;27249;48.094;-1.690;2023-02-04T09:32:10;57.94;51.08;64.72;;
41518;Laerm;27249;48.094;-1.690;2023-02-04T09:34:36;56.74;49.96;64.45;;
41518;Laerm;27249;48.094;-1.690;2023-02-04T09:37:01;55.96;51.40;62.02;;
41518;Laerm;27249;48.094;-1.690;2023-02-04T09:39:27;58.36;50.76;64.70;;
41518;Laerm;27249;48.094;-1.690;2023-02-04T09:41:52;56.57;50.53;70.98;;
41518;Laerm;27249;48.094;-1.690;2023-02-04T09:44:21;57.02;50.50;71.98;;
41518;Laerm;27249;48.094;-1.690;2023-02-04T09:46:54;57.57;51.13;62.87;;
41518;Laerm;27249;48.094;-1.690;2023-02-04T09:49:20;57.87;51.62;66.09;;
41518;Laerm;27249;48.094;-1.690;2023-02-04T09:51:45;57.05;51.93;69.40;;
41518;Laerm;27249;48.094;-1.690;2023-02-04T09:54:12;57.30;50.56;65.74;;
41518;Laerm;27249;48.094;-1.690;2023-02-04T09:56:38;57.41;51.11;62.80;;
41518;Laerm;27249;48.094;-1.690;2023-02-04T09:59:13;57.31;50.92;65.06;;
41518;Laerm;27249;48.094;-1.690;2023-02-04T10:01:38;56.85;49.62;63.43;;
41518;Laerm;27249;48.094;-1.690;2023-02-04T10:04:04;56.52;48.60;61.94;;
41518;Laerm;27249;48.094;-1.690;2023-02-04T10:06:29;56.20;49.62;61.81;;
41518;Laerm;27249;48.094;-1.690;2023-02-04T10:08:55;57.73;50.21;64.79;;
41518;Laerm;27249;48.094;-1.690;2023-02-04T10:11:21;57.30;48.00;66.76;;
41518;Laerm;27249;48.094;-1.690;2023-02-04T10:13:48;57.71;50.99;65.70;;
41518;Laerm;27249;48.094;-1.690;2023-02-04T10:16:25;57.49;50.38;67.22;;
41518;Laerm;27249;48.094;-1.690;2023-02-04T10:18:55;55.58;49.78;63.80;;
41518;Laerm;27249;48.094;-1.690;2023-02-04T10:21:21;56.50;47.67;73.21;;
41518;Laerm;27249;48.094;-1.690;2023-02-04T10:23:49;56.84;48.51;63.38;;
41518;Laerm;27249;48.094;-1.690;2023-02-04T10:26:15;56.00;49.74;69.27;;
41518;Laerm;27249;48.094;-1.690;2023-02-04T10:28:41;56.82;48.37;69.46;;
41518;Laerm;27249;48.094;-1.690;2023-02-04T10:31:24;61.58;49.58;84.82;;
41518;Laerm;27249;48.094;-1.690;2023-02-04T10:33:50;57.71;51.89;63.80;;
41518;Laerm;27249;48.094;-1.690;2023-02-04T10:36:25;56.88;51.82;62.20;;
41518;Laerm;27249;48.094;-1.690;2023-02-04T10:39:04;57.82;50.68;65.15;;
41518;Laerm;27249;48.094;-1.690;2023-02-04T10:41:30;56.97;48.04;71.25;;
41518;Laerm;27249;48.094;-1.690;2023-02-04T10:44:02;55.75;49.86;63.67;;
41518;Laerm;27249;48.094;-1.690;2023-02-04T10:46:29;57.15;51.66;65.87;;
41518;Laerm;27249;48.094;-1.690;2023-02-04T10:48:54;57.17;49.89;62.35;;
41518;Laerm;27249;48.094;-1.690;2023-02-04T10:51:20;56.63;49.98;65.24;;
41518;Laerm;27249;48.094;-1.690;2023-02-04T10:53:45;56.61;48.23;68.92;;
41518;Laerm;27249;48.094;-1.690;2023-02-04T10:56:29;56.21;47.68;68.12;;
41518;Laerm;27249;48.094;-1.690;2023-02-04T10:58:55;57.00;51.17;62.36;;
41518;Laerm;27249;48.094;-1.690;2023-02-04T11:01:20;57.29;51.22;67.69;;
41518;Laerm;27249;48.094;-1.690;2023-02-04T11:03:45;56.38;48.67;64.94;;
41518;Laerm;27249;48.094;-1.690;2023-02-04T11:06:13;57.27;50.48;63.49;;
41518;Laerm;27249;48.094;-1.690;2023-02-04T11:08:40;56.19;46.84;62.39;;
41518;Laerm;27249;48.094;-1.690;2023-02-04T11:11:22;57.06;50.72;62.78;;
41518;Laerm;27249;48.094;-1.690;2023-02-04T11:18:43;57.31;50.36;62.14;;
41518;Laerm;27249;48.094;-1.690;2023-02-04T11:22:03;57.11;47.88;63.98;;
41518;Laerm;27249;48.094;-1.690;2023-02-04T11:39:23;56.89;49.98;64.74;;
41518;Laerm;27249;48.094;-1.690;2023-02-04T11:41:51;58.62;49.52;74.18;;
41518;Laerm;27249;48.094;-1.690;2023-02-04T11:47:01;57.93;48.78;63.78;;
41518;Laerm;27249;48.094;-1.690;2023-02-04T11:49:26;57.35;51.02;64.41;;
41518;Laerm;27249;48.094;-1.690;2023-02-04T11:52:05;58.37;49.80;77.31;;
41518;Laerm;27249;48.094;-1.690;2023-02-04T11:54:33;56.99;49.49;64.50;;
41518;Laerm;27249;48.094;-1.690;2023-02-04T11:56:58;56.76;47.48;63.85;;
41518;Laerm;27249;48.094;-1.690;2023-02-04T11:59:24;56.58;49.57;70.63;;
41518;Laerm;27249;48.094;-1.690;2023-02-04T12:01:49;57.24;50.20;65.28;;
41518;Laerm;27249;48.094;-1.690;2023-02-04T12:04:22;56.58;50.18;67.16;;
41518;Laerm;27249;48.094;-1.690;2023-02-04T12:07:01;56.13;49.33;62.77;;
41518;Laerm;27249;48.094;-1.690;2023-02-04T12:09:27;55.27;46.80;62.71;;
41518;Laerm;27249;48.094;-1.690;2023-02-04T12:12:00;56.81;47.06;63.88;;
41518;Laerm;27249;48.094;-1.690;2023-02-04T12:16:57;56.62;48.76;63.88;;
41518;Laerm;27249;48.094;-1.690;2023-02-04T12:19:22;57.21;48.63;63.88;;
41518;Laerm;27249;48.094;-1.690;2023-02-04T12:21:47;57.70;52.09;64.94;;
41518;Laerm;27249;48.094;-1.690;2023-02-04T12:24:13;56.48;47.04;72.91;;
41518;Laerm;27249;48.094;-1.690;2023-02-04T12:26:38;57.80;50.99;65.60;;
41518;Laerm;27249;48.094;-1.690;2023-02-04T12:29:03;55.54;48.87;72.91;;
41518;Laerm;27249;48.094;-1.690;2023-02-04T12:31:29;58.18;47.54;68.86;;
41518;Laerm;27249;48.094;-1.690;2023-02-04T12:33:54;57.74;47.46;66.68;;
41518;Laerm;27249;48.094;-1.690;2023-02-04T12:36:20;55.85;47.68;63.23;;
41518;Laerm;27249;48.094;-1.690;2023-02-04T12:38:45;57.89;49.95;63.58;;
41518;Laerm;27249;48.094;-1.690;2023-02-04T12:41:11;57.00;49.71;62.71;;
41518;Laerm;27249;48.094;-1.690;2023-02-04T12:43:36;57.86;46.55;68.02;;
41518;Laerm;27249;48.094;-1.690;2023-02-04T12:46:01;58.11;45.80;66.76;;
41518;Laerm;27249;48.094;-1.690;2023-02-04T12:48:27;56.45;46.66;63.38;;
41518;Laerm;27249;48.094;-1.690;2023-02-04T12:50:52;56.91;48.64;64.00;;
41518;Laerm;27249;48.094;-1.690;2023-02-04T12:53:17;57.81;50.35;64.06;;
41518;Laerm;27249;48.094;-1.690;2023-02-04T12:55:42;57.20;50.63;65.36;;
41518;Laerm;27249;48.094;-1.690;2023-02-04T12:58:08;57.78;47.79;65.21;;
41518;Laerm;27249;48.094;-1.690;2023-02-04T13:00:33;57.10;48.13;64.60;;
41518;Laerm;27249;48.094;-1.690;2023-02-04T13:02:58;56.90;50.12;62.91;;
41518;Laerm;27249;48.094;-1.690;2023-02-04T13:05:24;57.47;49.23;64.50;;
41518;Laerm;27249;48.094;-1.690;2023-02-04T13:07:49;57.22;47.48;63.15;;
41518;Laerm;27249;48.094;-1.690;2023-02-04T13:10:15;57.79;50.28;64.26;;
41518;Laerm;27249;48.094;-1.690;2023-02-04T13:12:41;57.54;50.55;64.36;;
41518;Laerm;27249;48.094;-1.690;2023-02-04T13:15:06;57.18;50.66;63.65;;
41518;Laerm;27249;48.094;-1.690;2023-02-04T13:17:32;58.44;52.23;68.61;;
41518;Laerm;27249;48.094;-1.690;2023-02-04T13:19:57;58.11;50.28;64.00;;
41518;Laerm;27249;48.094;-1.690;2023-02-04T13:22:24;56.56;46.89;66.58;;
41518;Laerm;27249;48.094;-1.690;2023-02-04T13:24:49;57.91;51.07;65.13;;
41518;Laerm;27249;48.094;-1.690;2023-02-04T13:27:15;56.62;49.30;62.80;;
41518;Laerm;27249;48.094;-1.690;2023-02-04T13:29:40;57.44;51.67;66.50;;
41518;Laerm;27249;48.094;-1.690;2023-02-04T13:32:05;57.20;50.56;63.69;;
41518;Laerm;27249;48.094;-1.690;2023-02-04T13:34:31;60.31;51.78;72.78;;
41518;Laerm;27249;48.094;-1.690;2023-02-04T13:36:56;59.32;51.91;68.64;;
41518;Laerm;27249;48.094;-1.690;2023-02-04T13:39:21;58.38;53.68;64.24;;
41518;Laerm;27249;48.094;-1.690;2023-02-04T13:41:47;58.55;52.42;65.05;;
41518;Laerm;27249;48.094;-1.690;2023-02-04T13:44:12;56.80;50.87;62.82;;
41518;Laerm;27249;48.094;-1.690;2023-02-04T13:46:37;57.30;50.27;64.17;;
41518;Laerm;27249;48.094;-1.690;2023-02-04T13:49:02;56.44;48.10;61.91;;
41518;Laerm;27249;48.094;-1.690;2023-02-04T13:51:28;56.77;50.57;63.34;;